• Join FlightAware (Why Join?)
  • Login
  • US Flag 
05:15AM EDT


 

Airport Tracker/Info


-or-


 

Live Flight TrackerFlight Track Log ✈ AAY860 ✈ 25-Dec-2013 ✈ KPIE - KLEX

Flight Track Log - Related Links

Times and Time Zones

All times are in EST time to prevent confusion due to time zone crossing. See the AAY860 flight status page for this flight to view local times or setup timezone preferences in your user account.

Time Position Orientation Groundspeed Altitude Reporting Facility
EST Latitude Longitude Course Direction KTS MPH feet Rate Location/Type
09:00AM 27.9167 -82.7000 North 162 186 700  Level Tampa TRACON
09:02AM 28.0331 -82.6950 North 229 264 4,400 2,220 Climbing Jacksonville Center
09:03AM 28.1081 -82.7183 345° North 247 284 7,500 2,880 Climbing Jacksonville Center
09:04AM 28.1853 -82.7419 345° North 263 303 10,200 1,980 Climbing Jacksonville Center
09:05AM 28.2731 -82.7700 344° North 292 336 11,500 1,680 Climbing Jacksonville Center
09:06AM 28.3753 -82.8006 345° North 337 388 13,600 2,160 Climbing Jacksonville Center
09:07AM 28.4839 -82.8311 346° North 375 432 15,900 2,100 Climbing Jacksonville Center
09:08AM 28.5986 -82.8547 350° North 400 460 17,800 2,100 Climbing Jacksonville Center
09:09AM 28.7217 -82.8831 349° North 412 474 20,100 1,800 Climbing Jacksonville Center
09:10AM 28.8428 -82.9044 351° North 417 480 21,500 1,500 Climbing Jacksonville Center
09:11AM 28.9658 -82.9281 350° North 428 493 23,100 1,800 Climbing Jacksonville Center
09:12AM 29.0808 -82.9758 340° North 434 499 25,200 1,920 Climbing Jacksonville Center
09:13AM 29.1956 -83.0233 340° North 434 499 27,000 1,560 Climbing Jacksonville Center
09:14AM 29.3061 -83.0664 341° North 434 499 28,400 1,380 Climbing Jacksonville Center
09:15AM 29.4228 -83.1119 341° North 428 493 29,800 1,200 Climbing Jacksonville Center
09:16AM 29.5375 -83.1622 339° North 428 493 30,900 900 Climbing Jacksonville Center
09:17AM 29.6522 -83.2033 343° North 428 493 31,700 540 Climbing Jacksonville Center
09:18AM 29.7669 -83.2492 341° North 428 493 32,000 120 Climbing Jacksonville Center
09:19AM 29.8714 -83.2903 341° North 430 495 32,000 -60 Level Jacksonville Center
09:20AM 29.9839 -83.3361 341° North 435 501 31,900 -60 Descending Jacksonville Center
09:21AM 30.1006 -83.3800 342° North 435 501 31,900  Level Jacksonville Center
09:22AM 30.2153 -83.4261 341° North 435 501 32,000  Climbing Jacksonville Center
09:23AM 30.3300 -83.4725 341° North 435 501 31,900  Descending Jacksonville Center
09:24AM 30.4444 -83.5192 341° North 430 495 32,000  Climbing Jacksonville Center
09:25AM 30.5592 -83.5633 342° North 430 495 32,000  Level Jacksonville Center
09:26AM 30.6694 -83.6075 341° North 425 489 32,000  Level Jacksonville Center
09:27AM 30.7800 -83.6542 340° North 425 489 32,000  Level Jacksonville Center
09:28AM 30.8903 -83.6986 341° North 425 489 32,000  Level Jacksonville Center
09:29AM 31.0028 -83.7458 340° North 425 489 32,000  Level Jacksonville Center
09:30AM 31.1153 -83.7903 341° North 425 489 32,000  Level Jacksonville Center
09:31AM 31.2956 -83.8664 340° North 444 511 32,000  Level Atlanta Center
09:32AM 31.4083 -83.9125 341° North 424 488 32,000  Level Atlanta Center
09:33AM 31.5169 -83.9586 340° North 424 488 32,000  Level Atlanta Center
09:34AM 31.6233 -83.9828 349° North 424 488 32,000  Level Atlanta Center
09:35AM 31.7425 -84.0094 349° North 424 488 32,000  Level Atlanta Center
09:36AM 31.8594 -84.0339 350° North 429 494 32,000  Level Atlanta Center
09:37AM 31.9783 -84.0608 349° North 429 494 32,000  Level Atlanta Center
09:38AM 32.0953 -84.0856 350° North 429 494 32,000  Level Atlanta Center
09:39AM 32.2142 -84.1125 349° North 429 494 32,000  Level Atlanta Center
09:40AM 32.3311 -84.1397 349° North 429 494 32,000  Level Atlanta Center
09:41AM 32.4500 -84.1669 349° North 429 494 32,000  Level Atlanta Center
09:42AM 32.5689 -84.1917 350° North 429 494 32,000  Level Atlanta Center
09:43AM 32.6858 -84.2214 348° North 429 494 32,000  Level Atlanta Center
09:44AM 32.8150 -84.2539 348° North 429 494 32,000  Level Atlanta Center
09:45AM 32.9342 -84.2814 349° North 429 494 32,000  Level Atlanta Center
09:46AM 33.0531 -84.3089 349° North 429 494 32,000  Level Atlanta Center
09:47AM 33.1719 -84.3342 350° North 429 494 32,000  Level Atlanta Center
09:48AM 33.2803 -84.3569 350° North 429 494 32,000  Level Atlanta Center
09:49AM 33.3972 -84.3847 349° North 429 494 32,000  Level Atlanta Center
09:50AM 33.5139 -84.4125 349° North 429 494 32,000  Level Atlanta Center
09:51AM 33.6475 -84.4331 353° North 429 494 32,000  Level Atlanta Center
09:52AM 33.7708 -84.4036 11° North 433 498 32,000  Level Atlanta Center
09:53AM 33.9044 -84.3742 10° North 467 537 32,000  Level Atlanta Center
09:54AM 34.0256 -84.3447 11° North 469 540 32,000 -120 Level Atlanta Center
09:55AM 34.1467 -84.3150 11° North 464 534 31,800 -540 Descending Atlanta Center
09:56AM 34.2719 -84.2850 11° North 476 548 31,000 -420 Descending Atlanta Center
09:57AM 34.4036 -84.2553 11° North 470 541 31,000  Level Atlanta Center
09:58AM 34.5289 -84.2228 12° North 465 535 31,000  Level Atlanta Center
09:59AM 34.6603 -84.1953 10° North 472 543 31,000  Level Atlanta Center
10:00AM 34.7814 -84.1678 11° North 462 532 31,000  Level Atlanta Center
10:01AM 34.9128 -84.1375 11° North 462 532 31,000  Level Atlanta Center
10:02AM 35.0381 -84.1453 357° North 460 529 31,000  Level Atlanta Center
10:03AM 35.1592 -84.1581 355° North 449 517 31,000  Level Atlanta Center
10:04AM 35.2822 -84.1711 355° North 443 510 31,000  Level Atlanta Center
10:05AM 35.4072 -84.1839 355° North 443 510 31,000  Level Atlanta Center
10:06AM 35.5303 -84.1994 354° North 443 510 31,000 -300 Level Atlanta Center
10:07AM 35.6514 -84.2100 356° North 443 510 30,400 -660 Descending Atlanta Center
10:08AM 35.7767 -84.2256 354° North 443 510 29,700 -840 Descending Atlanta Center
10:10AM 35.9753 -84.2456 355° North 449 517 28,200 -1,020 Descending Indianapolis Center
10:11AM 36.0972 -84.2589 355° North 447 514 27,100 -1,140 Descending Indianapolis Center
10:12AM 36.2394 -84.2753 355° North 434 499 25,900 -1,140 Descending Indianapolis Center
10:13AM 36.3564 -84.2872 355° North 427 491 24,900 -960 Descending Indianapolis Center
10:14AM 36.4703 -84.3011 354° North 417 480 24,000 -480 Descending Indianapolis Center
10:15AM 36.5775 -84.3125 355° North 411 473 24,000  Level Indianapolis Center
10:16AM 36.6931 -84.3269 354° North 413 475 24,000 -300 Level Indianapolis Center
10:17AM 36.8083 -84.3383 355° North 415 478 23,400 -840 Descending Indianapolis Center
10:18AM 36.9211 -84.3517 355° North 408 470 22,400 -1,020 Descending Indianapolis Center
10:19AM 37.0303 -84.3633 355° North 397 457 21,400 -1,500 Descending Indianapolis Center
10:20AM 37.1381 -84.3764 354° North 391 450 19,400 -1,920 Descending Indianapolis Center
10:21AM 37.2628 -84.3900 355° North 386 444 17,600 -1,980 Descending Indianapolis Center
10:22AM 37.3683 -84.4028 355° North 381 438 15,500 -2,040 Descending Indianapolis Center
10:23AM 37.4672 -84.4144 355° North 361 415 13,500 -1,980 Descending Indianapolis Center
10:24AM 37.5628 -84.4244 355° North 346 398 11,500 -1,740 Descending Indianapolis Center
10:25AM 37.6542 -84.4383 353° North 335 386 10,000 -1,380 Descending Indianapolis Center
10:26AM 37.7253 -84.4903 330° Northwest 302 348 8,800 -1,500 Descending Indianapolis Center
10:27AM 37.7947 -84.5319 335° Northwest 283 326 7,000 -1,740 Descending Indianapolis Center
10:28AM 37.8725 -84.5294 North 282 325 5,300 -1,920 Descending Indianapolis Center
10:29AM 37.9425 -84.5344 357° North 263 303 3,100 -1,140 Descending Indianapolis Center
10:30AM 37.9975 -84.5050 23° Northeast 238 274 3,000 -300 Descending Indianapolis Center
10:31AM 38.0453 -84.5022 North 215 247 2,500 -420 Descending Indianapolis Center
10:32AM 38.0767 -84.5406 316° Northwest 173 199 2,200 -420 Descending Indianapolis Center
10:33AM 38.0558 -84.5847 239° Southwest 152 175 1,700 -540 Descending Indianapolis Center
10:35AM 38.0333 -84.6000 302° West  Level FlightAware Approximate
10:42AM 38.0368 -84.6086 302° West  Level Estimated
10:43AM 38.0368 -84.6086 302° West  Level Estimated